Ocean King D — V7TV6 — position and weather

sailwx.info

Track history (hours):
 
Tides and Currents Weather Stations Pressure Air Temp Water Temp Dewpoint Dewpoint Depression Visibility Wind Speed Wind Dir Waves Ship Positions

Ocean King D

Last reported at 2016-Sep-25 10:06 UTC. Time now 2016-Sep-30 16:55 UTC.
Position N 37°39' E 123°50'.

Length 190 m; draft 10.5 m.

Type: Cargo ship. MMSI: 538003892.

Date/timePositionNaut miles runAvg speedWind from/ knotsBaromVisibWave heightAir tempDewpointWater temp
2016-Sep-25 10:06N 37°39' E 123°50'138 9.5
2016-Sep-24 19:28N 38°28' E 121°06'1010.8
2016-Sep-24 18:32N 38°33' E 120°55'1211.1
2016-Sep-24 17:29N 38°35' E 120°40'1211.6
2016-Sep-24 16:25N 38°37' E 120°24'127 9.8
2016-Sep-24 03:29N 38°59' E 117°45'0 0.0
2016-Sep-24 02:23N 38°59' E 117°45'0 0.0
2016-Sep-24 01:29N 38°59' E 117°45'0 0.0
2016-Sep-24 00:23N 38°59' E 117°45'0 0.0
2016-Sep-23 19:23N 38°59' E 117°45'0 0.0
2016-Sep-23 17:17N 38°59' E 117°45'0 0.0
2016-Sep-23 16:23N 38°59' E 117°45'0 0.0
2016-Sep-23 15:29N 38°59' E 117°45'0 0.0
2016-Sep-23 13:29N 38°59' E 117°45'0 0.0
2016-Sep-23 09:05N 38°59' E 117°45'  
2016-Sep-20 17:25N 39°03' E 117°46'0 0.0
2016-Sep-20 14:31N 39°03' E 117°46'0 0.0
2016-Sep-20 13:31N 39°03' E 117°46'0 0.0
2016-Sep-20 10:31N 39°03' E 117°46'0 0.0
2016-Sep-20 08:31N 39°03' E 117°46'0 0.0
2016-Sep-20 07:31N 39°03' E 117°46'0 0.0
2016-Sep-20 06:31N 39°03' E 117°46'0 0.0
2016-Sep-20 02:25N 39°03' E 117°46'0 0.0
2016-Sep-19 23:31N 39°03' E 117°46'0 0.0
2016-Sep-19 19:31N 39°03' E 117°46'0 0.0
2016-Sep-19 18:31N 39°03' E 117°46'0 0.2
2016-Sep-19 16:33N 39°03' E 117°46'  
2016-Sep-16 07:33N 38°53' E 118°35'26 3.8
2016-Sep-16 00:33N 38°48' E 119°08'  
Track history (hours):
 
Tides and Currents Weather Stations Pressure Air Temp Water Temp Dewpoint Dewpoint Depression Visibility Wind Speed Wind Dir Waves Ship Positions

Ocean King D

Last reported at 2016-Sep-25 10:06 UTC. Time now 2016-Sep-30 16:55 UTC.
Position N 37°39' E 123°50'.

Length 190 m; draft 10.5 m.

Type: Cargo ship. MMSI: 538003892.

Date/timePositionNaut miles runAvg speedWind from/ knotsBaromVisibWave heightAir tempDewpointWater temp
2016-Sep-25 10:06N 37°39' E 123°50'138 9.5
2016-Sep-24 19:28N 38°28' E 121°06'1010.8
2016-Sep-24 18:32N 38°33' E 120°55'1211.1
2016-Sep-24 17:29N 38°35' E 120°40'1211.6
2016-Sep-24 16:25N 38°37' E 120°24'127 9.8
2016-Sep-24 03:29N 38°59' E 117°45'0 0.0
2016-Sep-24 02:23N 38°59' E 117°45'0 0.0
2016-Sep-24 01:29N 38°59' E 117°45'0 0.0
2016-Sep-24 00:23N 38°59' E 117°45'0 0.0
2016-Sep-23 19:23N 38°59' E 117°45'0 0.0
2016-Sep-23 17:17N 38°59' E 117°45'0 0.0
2016-Sep-23 16:23N 38°59' E 117°45'0 0.0
2016-Sep-23 15:29N 38°59' E 117°45'0 0.0
2016-Sep-23 13:29N 38°59' E 117°45'0 0.0
2016-Sep-23 09:05N 38°59' E 117°45'  
2016-Sep-20 17:25N 39°03' E 117°46'0 0.0
2016-Sep-20 14:31N 39°03' E 117°46'0 0.0
2016-Sep-20 13:31N 39°03' E 117°46'0 0.0
2016-Sep-20 10:31N 39°03' E 117°46'0 0.0
2016-Sep-20 08:31N 39°03' E 117°46'0 0.0
2016-Sep-20 07:31N 39°03' E 117°46'0 0.0
2016-Sep-20 06:31N 39°03' E 117°46'0 0.0
2016-Sep-20 02:25N 39°03' E 117°46'0 0.0
2016-Sep-19 23:31N 39°03' E 117°46'0 0.0
2016-Sep-19 19:31N 39°03' E 117°46'0 0.0
2016-Sep-19 18:31N 39°03' E 117°46'0 0.2
2016-Sep-19 16:33N 39°03' E 117°46'  
2016-Sep-16 07:33N 38°53' E 118°35'26 3.8
2016-Sep-16 00:33N 38°48' E 119°08'  

Dump ship's entire track history